sensor_id;sensor_type;location;lat;lon;timestamp;P1;durP1;ratioP1;P2;durP2;ratioP2
52768;SDS011;40471;44.534;18.644;2024-03-22T00:04:15;198.85;;;110.80;;
52768;SDS011;40471;44.534;18.644;2024-03-22T00:06:42;176.85;;;103.13;;
52768;SDS011;40471;44.534;18.644;2024-03-22T00:09:09;184.13;;;102.55;;
52768;SDS011;40471;44.534;18.644;2024-03-22T00:11:35;361.08;;;195.45;;
52768;SDS011;40471;44.534;18.644;2024-03-22T00:14:02;269.47;;;147.80;;
52768;SDS011;40471;44.534;18.644;2024-03-22T00:16:28;217.88;;;123.47;;
52768;SDS011;40471;44.534;18.644;2024-03-22T00:18:54;186.00;;;109.30;;
52768;SDS011;40471;44.534;18.644;2024-03-22T00:21:20;202.50;;;112.43;;
52768;SDS011;40471;44.534;18.644;2024-03-22T00:23:47;198.57;;;110.10;;
52768;SDS011;40471;44.534;18.644;2024-03-22T00:26:12;202.67;;;108.57;;
52768;SDS011;40471;44.534;18.644;2024-03-22T00:28:38;193.50;;;101.97;;
52768;SDS011;40471;44.534;18.644;2024-03-22T00:31:04;169.23;;;96.40;;
52768;SDS011;40471;44.534;18.644;2024-03-22T00:33:30;165.50;;;96.60;;
52768;SDS011;40471;44.534;18.644;2024-03-22T00:35:56;158.57;;;91.30;;
52768;SDS011;40471;44.534;18.644;2024-03-22T00:38:22;176.03;;;105.90;;
52768;SDS011;40471;44.534;18.644;2024-03-22T00:40:48;208.50;;;115.17;;
52768;SDS011;40471;44.534;18.644;2024-03-22T00:43:14;180.27;;;104.23;;
52768;SDS011;40471;44.534;18.644;2024-03-22T00:45:39;201.97;;;114.67;;
52768;SDS011;40471;44.534;18.644;2024-03-22T00:48:06;177.80;;;101.72;;
52768;SDS011;40471;44.534;18.644;2024-03-22T00:50:32;174.77;;;100.82;;
52768;SDS011;40471;44.534;18.644;2024-03-22T00:52:57;181.50;;;105.40;;
52768;SDS011;40471;44.534;18.644;2024-03-22T00:55:23;168.63;;;100.13;;
52768;SDS011;40471;44.534;18.644;2024-03-22T00:57:49;161.43;;;85.35;;
52768;SDS011;40471;44.534;18.644;2024-03-22T01:00:16;152.35;;;92.32;;
52768;SDS011;40471;44.534;18.644;2024-03-22T01:02:42;134.03;;;73.53;;
52768;SDS011;40471;44.534;18.644;2024-03-22T01:05:08;126.20;;;71.53;;
52768;SDS011;40471;44.534;18.644;2024-03-22T01:07:33;96.30;;;55.77;;
52768;SDS011;40471;44.534;18.644;2024-03-22T01:10:00;105.25;;;62.60;;
52768;SDS011;40471;44.534;18.644;2024-03-22T01:12:26;105.87;;;62.93;;
52768;SDS011;40471;44.534;18.644;2024-03-22T01:14:51;99.87;;;56.40;;
52768;SDS011;40471;44.534;18.644;2024-03-22T01:17:17;78.60;;;46.20;;
52768;SDS011;40471;44.534;18.644;2024-03-22T01:19:43;88.33;;;51.73;;
52768;SDS011;40471;44.534;18.644;2024-03-22T01:22:09;71.45;;;42.28;;
52768;SDS011;40471;44.534;18.644;2024-03-22T01:24:35;46.73;;;28.93;;
52768;SDS011;40471;44.534;18.644;2024-03-22T01:27:00;64.37;;;39.43;;
52768;SDS011;40471;44.534;18.644;2024-03-22T01:29:26;54.23;;;33.13;;
52768;SDS011;40471;44.534;18.644;2024-03-22T01:31:55;64.03;;;37.28;;
52768;SDS011;40471;44.534;18.644;2024-03-22T01:34:21;64.73;;;37.17;;
52768;SDS011;40471;44.534;18.644;2024-03-22T01:36:46;40.47;;;26.57;;
52768;SDS011;40471;44.534;18.644;2024-03-22T01:39:12;59.03;;;35.20;;
52768;SDS011;40471;44.534;18.644;2024-03-22T01:41:39;40.40;;;25.60;;
52768;SDS011;40471;44.534;18.644;2024-03-22T01:44:05;42.97;;;22.23;;
52768;SDS011;40471;44.534;18.644;2024-03-22T01:46:31;30.80;;;20.03;;
52768;SDS011;40471;44.534;18.644;2024-03-22T01:48:57;40.87;;;23.33;;
52768;SDS011;40471;44.534;18.644;2024-03-22T01:51:23;43.15;;;24.83;;
52768;SDS011;40471;44.534;18.644;2024-03-22T01:53:49;32.13;;;20.60;;
52768;SDS011;40471;44.534;18.644;2024-03-22T01:56:15;39.95;;;23.67;;
52768;SDS011;40471;44.534;18.644;2024-03-22T01:58:41;43.50;;;26.23;;
52768;SDS011;40471;44.534;18.644;2024-03-22T02:01:07;39.63;;;25.00;;
52768;SDS011;40471;44.534;18.644;2024-03-22T02:03:33;48.03;;;27.73;;
52768;SDS011;40471;44.534;18.644;2024-03-22T02:05:59;80.17;;;41.20;;
52768;SDS011;40471;44.534;18.644;2024-03-22T02:08:24;71.43;;;42.30;;
52768;SDS011;40471;44.534;18.644;2024-03-22T02:10:50;69.10;;;38.67;;
52768;SDS011;40471;44.534;18.644;2024-03-22T02:13:17;80.35;;;43.33;;
52768;SDS011;40471;44.534;18.644;2024-03-22T02:15:43;78.03;;;42.73;;
52768;SDS011;40471;44.534;18.644;2024-03-22T02:18:09;72.97;;;42.87;;
52768;SDS011;40471;44.534;18.644;2024-03-22T02:20:35;89.37;;;47.10;;
52768;SDS011;40471;44.534;18.644;2024-03-22T02:23:00;78.63;;;45.57;;
52768;SDS011;40471;44.534;18.644;2024-03-22T02:25:26;98.27;;;54.07;;
52768;SDS011;40471;44.534;18.644;2024-03-22T02:27:52;97.50;;;59.37;;
52768;SDS011;40471;44.534;18.644;2024-03-22T02:30:17;107.07;;;60.00;;
52768;SDS011;40471;44.534;18.644;2024-03-22T02:32:43;94.70;;;55.40;;
52768;SDS011;40471;44.534;18.644;2024-03-22T02:35:09;94.03;;;53.23;;
52768;SDS011;40471;44.534;18.644;2024-03-22T02:37:35;74.87;;;47.30;;
52768;SDS011;40471;44.534;18.644;2024-03-22T02:40:01;85.30;;;47.57;;
52768;SDS011;40471;44.534;18.644;2024-03-22T02:42:26;80.73;;;45.13;;
52768;SDS011;40471;44.534;18.644;2024-03-22T02:44:52;98.87;;;48.70;;
52768;SDS011;40471;44.534;18.644;2024-03-22T02:47:18;85.73;;;50.60;;
52768;SDS011;40471;44.534;18.644;2024-03-22T02:49:44;93.22;;;51.03;;
52768;SDS011;40471;44.534;18.644;2024-03-22T02:52:10;91.90;;;48.60;;
52768;SDS011;40471;44.534;18.644;2024-03-22T02:54:35;96.53;;;55.00;;
52768;SDS011;40471;44.534;18.644;2024-03-22T02:57:01;85.13;;;48.40;;
52768;SDS011;40471;44.534;18.644;2024-03-22T02:59:27;91.87;;;54.70;;
52768;SDS011;40471;44.534;18.644;2024-03-22T03:01:53;88.82;;;51.53;;
52768;SDS011;40471;44.534;18.644;2024-03-22T03:04:19;77.27;;;45.27;;
52768;SDS011;40471;44.534;18.644;2024-03-22T03:06:45;92.30;;;50.87;;
52768;SDS011;40471;44.534;18.644;2024-03-22T03:09:11;76.27;;;43.20;;
52768;SDS011;40471;44.534;18.644;2024-03-22T03:11:40;61.35;;;40.97;;
52768;SDS011;40471;44.534;18.644;2024-03-22T03:14:06;74.68;;;46.45;;
52768;SDS011;40471;44.534;18.644;2024-03-22T03:16:32;66.63;;;40.10;;
52768;SDS011;40471;44.534;18.644;2024-03-22T03:18:58;65.63;;;39.43;;
52768;SDS011;40471;44.534;18.644;2024-03-22T03:21:23;81.07;;;37.33;;
52768;SDS011;40471;44.534;18.644;2024-03-22T03:23:49;76.20;;;39.33;;
52768;SDS011;40471;44.534;18.644;2024-03-22T03:26:15;62.83;;;34.47;;
52768;SDS011;40471;44.534;18.644;2024-03-22T03:28:41;70.60;;;37.00;;
52768;SDS011;40471;44.534;18.644;2024-03-22T03:31:07;67.07;;;37.70;;
52768;SDS011;40471;44.534;18.644;2024-03-22T03:33:32;63.87;;;36.47;;
52768;SDS011;40471;44.534;18.644;2024-03-22T03:35:58;58.27;;;34.03;;
52768;SDS011;40471;44.534;18.644;2024-03-22T03:38:24;61.53;;;33.73;;
52768;SDS011;40471;44.534;18.644;2024-03-22T03:40:50;57.83;;;34.50;;
52768;SDS011;40471;44.534;18.644;2024-03-22T03:43:15;60.03;;;33.10;;
52768;SDS011;40471;44.534;18.644;2024-03-22T03:45:41;63.53;;;37.87;;
52768;SDS011;40471;44.534;18.644;2024-03-22T03:48:07;65.73;;;40.37;;
52768;SDS011;40471;44.534;18.644;2024-03-22T03:50:33;73.50;;;40.63;;
52768;SDS011;40471;44.534;18.644;2024-03-22T03:52:58;73.80;;;38.00;;
52768;SDS011;40471;44.534;18.644;2024-03-22T03:55:24;77.17;;;41.20;;
52768;SDS011;40471;44.534;18.644;2024-03-22T03:57:50;70.20;;;41.07;;
52768;SDS011;40471;44.534;18.644;2024-03-22T04:00:16;74.43;;;41.60;;
52768;SDS011;40471;44.534;18.644;2024-03-22T04:02:43;66.13;;;38.78;;
52768;SDS011;40471;44.534;18.644;2024-03-22T04:05:10;67.25;;;43.65;;
52768;SDS011;40471;44.534;18.644;2024-03-22T04:07:36;73.13;;;40.93;;
52768;SDS011;40471;44.534;18.644;2024-03-22T04:10:02;71.13;;;45.47;;
52768;SDS011;40471;44.534;18.644;2024-03-22T04:12:28;73.60;;;46.08;;
52768;SDS011;40471;44.534;18.644;2024-03-22T04:14:54;69.50;;;40.47;;
52768;SDS011;40471;44.534;18.644;2024-03-22T04:17:19;66.87;;;40.47;;
52768;SDS011;40471;44.534;18.644;2024-03-22T04:19:45;70.90;;;45.27;;
52768;SDS011;40471;44.534;18.644;2024-03-22T04:22:11;70.17;;;45.07;;
52768;SDS011;40471;44.534;18.644;2024-03-22T04:24:37;78.67;;;41.63;;
52768;SDS011;40471;44.534;18.644;2024-03-22T04:27:03;68.03;;;39.93;;
52768;SDS011;40471;44.534;18.644;2024-03-22T04:29:29;63.73;;;35.40;;
52768;SDS011;40471;44.534;18.644;2024-03-22T04:31:55;80.80;;;42.15;;
52768;SDS011;40471;44.534;18.644;2024-03-22T04:34:20;108.07;;;58.27;;
52768;SDS011;40471;44.534;18.644;2024-03-22T04:36:46;100.77;;;55.03;;
52768;SDS011;40471;44.534;18.644;2024-03-22T04:39:12;89.13;;;55.37;;
52768;SDS011;40471;44.534;18.644;2024-03-22T04:41:38;92.38;;;56.08;;
52768;SDS011;40471;44.534;18.644;2024-03-22T04:44:04;82.10;;;53.10;;
52768;SDS011;40471;44.534;18.644;2024-03-22T04:46:30;96.10;;;57.83;;
52768;SDS011;40471;44.534;18.644;2024-03-22T04:48:56;95.60;;;59.30;;
52768;SDS011;40471;44.534;18.644;2024-03-22T04:51:21;106.53;;;62.87;;
52768;SDS011;40471;44.534;18.644;2024-03-22T04:53:48;113.57;;;69.75;;
52768;SDS011;40471;44.534;18.644;2024-03-22T04:56:13;94.17;;;62.53;;
52768;SDS011;40471;44.534;18.644;2024-03-22T04:58:39;81.50;;;54.30;;
52768;SDS011;40471;44.534;18.644;2024-03-22T05:01:05;95.13;;;51.30;;
52768;SDS011;40471;44.534;18.644;2024-03-22T05:03:30;71.03;;;42.43;;
52768;SDS011;40471;44.534;18.644;2024-03-22T05:05:57;75.17;;;42.27;;
52768;SDS011;40471;44.534;18.644;2024-03-22T05:10:49;65.10;;;38.70;;
52768;SDS011;40471;44.534;18.644;2024-03-22T05:13:14;65.00;;;37.67;;
52768;SDS011;40471;44.534;18.644;2024-03-22T05:15:40;48.60;;;30.33;;
52768;SDS011;40471;44.534;18.644;2024-03-22T05:18:06;43.33;;;26.20;;
52768;SDS011;40471;44.534;18.644;2024-03-22T05:20:32;63.83;;;29.37;;
52768;SDS011;40471;44.534;18.644;2024-03-22T05:22:57;57.57;;;30.60;;
52768;SDS011;40471;44.534;18.644;2024-03-22T05:25:23;71.07;;;40.27;;
52768;SDS011;40471;44.534;18.644;2024-03-22T05:27:50;61.22;;;39.05;;
52768;SDS011;40471;44.534;18.644;2024-03-22T05:30:17;86.32;;;51.60;;
52768;SDS011;40471;44.534;18.644;2024-03-22T05:32:43;69.37;;;41.07;;
52768;SDS011;40471;44.534;18.644;2024-03-22T05:35:08;90.47;;;58.03;;
52768;SDS011;40471;44.534;18.644;2024-03-22T05:37:34;90.20;;;60.10;;
52768;SDS011;40471;44.534;18.644;2024-03-22T05:40:00;86.82;;;59.38;;
52768;SDS011;40471;44.534;18.644;2024-03-22T05:42:28;71.22;;;47.03;;
52768;SDS011;40471;44.534;18.644;2024-03-22T05:44:55;65.70;;;42.20;;
52768;SDS011;40471;44.534;18.644;2024-03-22T05:47:20;64.13;;;37.20;;
52768;SDS011;40471;44.534;18.644;2024-03-22T05:49:47;55.63;;;36.35;;
52768;SDS011;40471;44.534;18.644;2024-03-22T05:52:13;60.88;;;35.17;;
52768;SDS011;40471;44.534;18.644;2024-03-22T05:54:38;62.20;;;32.53;;
52768;SDS011;40471;44.534;18.644;2024-03-22T05:57:04;46.47;;;28.00;;
52768;SDS011;40471;44.534;18.644;2024-03-22T05:59:30;66.23;;;32.60;;
52768;SDS011;40471;44.534;18.644;2024-03-22T06:01:56;46.20;;;27.35;;
52768;SDS011;40471;44.534;18.644;2024-03-22T06:04:22;63.83;;;30.67;;
52768;SDS011;40471;44.534;18.644;2024-03-22T06:06:48;49.05;;;30.20;;
52768;SDS011;40471;44.534;18.644;2024-03-22T06:09:14;50.13;;;31.50;;
52768;SDS011;40471;44.534;18.644;2024-03-22T06:11:51;51.38;;;26.80;;
52768;SDS011;40471;44.534;18.644;2024-03-22T06:14:17;62.90;;;32.70;;
52768;SDS011;40471;44.534;18.644;2024-03-22T06:16:43;53.30;;;30.07;;
52768;SDS011;40471;44.534;18.644;2024-03-22T06:19:09;60.53;;;31.00;;
52768;SDS011;40471;44.534;18.644;2024-03-22T06:21:35;55.80;;;29.93;;
52768;SDS011;40471;44.534;18.644;2024-03-22T06:24:01;47.88;;;29.92;;
52768;SDS011;40471;44.534;18.644;2024-03-22T06:26:28;62.60;;;30.50;;
52768;SDS011;40471;44.534;18.644;2024-03-22T06:28:54;54.53;;;28.83;;
52768;SDS011;40471;44.534;18.644;2024-03-22T06:31:20;44.13;;;28.45;;
52768;SDS011;40471;44.534;18.644;2024-03-22T06:33:46;58.17;;;31.87;;
52768;SDS011;40471;44.534;18.644;2024-03-22T06:36:11;84.20;;;31.73;;
52768;SDS011;40471;44.534;18.644;2024-03-22T06:38:37;51.23;;;32.27;;
52768;SDS011;40471;44.534;18.644;2024-03-22T06:41:03;51.90;;;30.83;;
52768;SDS011;40471;44.534;18.644;2024-03-22T06:43:29;56.17;;;33.27;;
52768;SDS011;40471;44.534;18.644;2024-03-22T06:45:55;50.77;;;31.50;;
52768;SDS011;40471;44.534;18.644;2024-03-22T06:48:20;78.30;;;37.43;;
52768;SDS011;40471;44.534;18.644;2024-03-22T06:50:46;65.80;;;34.90;;
52768;SDS011;40471;44.534;18.644;2024-03-22T06:53:12;62.35;;;34.58;;
52768;SDS011;40471;44.534;18.644;2024-03-22T06:55:38;52.70;;;32.10;;
52768;SDS011;40471;44.534;18.644;2024-03-22T06:58:04;49.65;;;35.33;;
52768;SDS011;40471;44.534;18.644;2024-03-22T07:00:30;53.08;;;34.75;;
52768;SDS011;40471;44.534;18.644;2024-03-22T07:02:55;53.17;;;31.23;;
52768;SDS011;40471;44.534;18.644;2024-03-22T07:05:22;56.28;;;33.80;;
52768;SDS011;40471;44.534;18.644;2024-03-22T07:07:48;41.38;;;29.20;;
52768;SDS011;40471;44.534;18.644;2024-03-22T07:10:15;51.15;;;29.58;;
52768;SDS011;40471;44.534;18.644;2024-03-22T07:12:41;54.60;;;30.10;;
52768;SDS011;40471;44.534;18.644;2024-03-22T07:15:07;41.03;;;26.58;;
52768;SDS011;40471;44.534;18.644;2024-03-22T07:17:33;45.05;;;28.50;;
52768;SDS011;40471;44.534;18.644;2024-03-22T07:19:59;48.92;;;27.45;;
52768;SDS011;40471;44.534;18.644;2024-03-22T07:22:25;47.10;;;29.35;;
52768;SDS011;40471;44.534;18.644;2024-03-22T07:24:51;41.42;;;26.73;;
52768;SDS011;40471;44.534;18.644;2024-03-22T07:27:17;43.90;;;25.80;;
52768;SDS011;40471;44.534;18.644;2024-03-22T07:29:46;45.33;;;25.80;;
52768;SDS011;40471;44.534;18.644;2024-03-22T07:32:11;47.35;;;27.80;;
52768;SDS011;40471;44.534;18.644;2024-03-22T07:34:37;33.00;;;21.48;;
52768;SDS011;40471;44.534;18.644;2024-03-22T07:37:03;46.58;;;24.67;;
52768;SDS011;40471;44.534;18.644;2024-03-22T07:41:55;43.38;;;24.52;;
52768;SDS011;40471;44.534;18.644;2024-03-22T07:46:49;32.70;;;22.63;;
52768;SDS011;40471;44.534;18.644;2024-03-22T07:51:43;33.20;;;19.05;;
52768;SDS011;40471;44.534;18.644;2024-03-22T07:54:09;31.20;;;17.33;;
52768;SDS011;40471;44.534;18.644;2024-03-22T07:56:38;26.35;;;16.60;;
52768;SDS011;40471;44.534;18.644;2024-03-22T08:01:30;28.70;;;15.75;;
52768;SDS011;40471;44.534;18.644;2024-03-22T08:06:45;30.48;;;13.35;;
52768;SDS011;40471;44.534;18.644;2024-03-22T08:09:33;34.72;;;18.30;;
52768;SDS011;40471;44.534;18.644;2024-03-22T08:11:59;24.70;;;15.68;;
52768;SDS011;40471;44.534;18.644;2024-03-22T08:16:58;24.77;;;14.70;;
52768;SDS011;40471;44.534;18.644;2024-03-22T08:19:24;37.90;;;15.88;;
52768;SDS011;40471;44.534;18.644;2024-03-22T08:24:16;26.15;;;14.85;;
52768;SDS011;40471;44.534;18.644;2024-03-22T08:26:45;26.15;;;14.07;;
52768;SDS011;40471;44.534;18.644;2024-03-22T08:29:15;25.05;;;14.15;;
52768;SDS011;40471;44.534;18.644;2024-03-22T08:31:41;25.05;;;15.25;;
52768;SDS011;40471;44.534;18.644;2024-03-22T08:36:32;26.15;;;13.88;;
52768;SDS011;40471;44.534;18.644;2024-03-22T08:41:25;22.77;;;14.02;;
52768;SDS011;40471;44.534;18.644;2024-03-22T08:43:55;25.95;;;14.20;;
52768;SDS011;40471;44.534;18.644;2024-03-22T08:48:48;21.20;;;13.25;;
52768;SDS011;40471;44.534;18.644;2024-03-22T08:53:39;20.20;;;12.60;;
52768;SDS011;40471;44.534;18.644;2024-03-22T08:56:05;31.88;;;14.68;;
52768;SDS011;40471;44.534;18.644;2024-03-22T09:00:57;28.42;;;15.90;;
52768;SDS011;40471;44.534;18.644;2024-03-22T09:05:51;34.55;;;17.88;;
52768;SDS011;40471;44.534;18.644;2024-03-22T09:08:18;25.38;;;16.85;;
52768;SDS011;40471;44.534;18.644;2024-03-22T09:10:44;36.22;;;18.02;;
52768;SDS011;40471;44.534;18.644;2024-03-22T09:13:11;33.22;;;17.75;;
52768;SDS011;40471;44.534;18.644;2024-03-22T09:15:39;42.03;;;21.17;;
52768;SDS011;40471;44.534;18.644;2024-03-22T09:18:08;34.90;;;19.10;;
52768;SDS011;40471;44.534;18.644;2024-03-22T09:20:34;25.35;;;18.52;;
52768;SDS011;40471;44.534;18.644;2024-03-22T09:23:00;34.35;;;16.48;;
52768;SDS011;40471;44.534;18.644;2024-03-22T09:25:26;35.85;;;23.25;;
52768;SDS011;40471;44.534;18.644;2024-03-22T09:27:52;32.30;;;14.52;;
52768;SDS011;40471;44.534;18.644;2024-03-22T09:30:18;26.95;;;15.85;;
52768;SDS011;40471;44.534;18.644;2024-03-22T09:32:44;30.10;;;15.50;;
52768;SDS011;40471;44.534;18.644;2024-03-22T09:35:10;21.17;;;13.63;;
52768;SDS011;40471;44.534;18.644;2024-03-22T09:37:40;27.85;;;14.55;;
52768;SDS011;40471;44.534;18.644;2024-03-22T09:40:06;19.13;;;14.45;;
52768;SDS011;40471;44.534;18.644;2024-03-22T09:42:33;30.13;;;11.90;;
52768;SDS011;40471;44.534;18.644;2024-03-22T09:45:04;16.45;;;10.82;;
52768;SDS011;40471;44.534;18.644;2024-03-22T09:47:33;19.98;;;12.10;;
52768;SDS011;40471;44.534;18.644;2024-03-22T09:50:06;16.65;;;11.15;;
52768;SDS011;40471;44.534;18.644;2024-03-22T09:52:36;28.63;;;13.00;;
52768;SDS011;40471;44.534;18.644;2024-03-22T09:55:13;17.70;;;11.23;;
52768;SDS011;40471;44.534;18.644;2024-03-22T09:57:42;23.10;;;11.60;;
52768;SDS011;40471;44.534;18.644;2024-03-22T10:00:10;23.33;;;10.00;;
52768;SDS011;40471;44.534;18.644;2024-03-22T10:02:39;20.08;;;11.43;;
52768;SDS011;40471;44.534;18.644;2024-03-22T10:05:08;21.05;;;9.95;;
52768;SDS011;40471;44.534;18.644;2024-03-22T10:07:34;20.67;;;9.80;;
52768;SDS011;40471;44.534;18.644;2024-03-22T10:10:00;16.95;;;9.20;;
52768;SDS011;40471;44.534;18.644;2024-03-22T10:14:54;18.02;;;10.50;;
52768;SDS011;40471;44.534;18.644;2024-03-22T10:17:27;13.07;;;7.35;;
52768;SDS011;40471;44.534;18.644;2024-03-22T10:19:53;23.85;;;9.50;;
52768;SDS011;40471;44.534;18.644;2024-03-22T10:22:22;18.40;;;9.90;;
52768;SDS011;40471;44.534;18.644;2024-03-22T10:24:50;16.77;;;8.82;;
52768;SDS011;40471;44.534;18.644;2024-03-22T10:27:26;24.70;;;9.90;;
52768;SDS011;40471;44.534;18.644;2024-03-22T10:29:57;28.70;;;9.45;;
52768;SDS011;40471;44.534;18.644;2024-03-22T10:32:37;14.70;;;7.90;;
52768;SDS011;40471;44.534;18.644;2024-03-22T10:37:35;16.63;;;8.32;;
52768;SDS011;40471;44.534;18.644;2024-03-22T10:40:02;23.58;;;9.18;;
52768;SDS011;40471;44.534;18.644;2024-03-22T10:42:39;14.57;;;7.28;;
52768;SDS011;40471;44.534;18.644;2024-03-22T10:45:07;18.23;;;9.38;;
52768;SDS011;40471;44.534;18.644;2024-03-22T10:47:34;14.38;;;7.55;;
52768;SDS011;40471;44.534;18.644;2024-03-22T10:50:08;33.50;;;8.23;;
52768;SDS011;40471;44.534;18.644;2024-03-22T10:52:38;27.90;;;9.50;;
52768;SDS011;40471;44.534;18.644;2024-03-22T10:55:12;14.45;;;5.75;;
52768;SDS011;40471;44.534;18.644;2024-03-22T10:57:53;14.90;;;6.65;;
52768;SDS011;40471;44.534;18.644;2024-03-22T11:00:27;19.10;;;8.13;;
52768;SDS011;40471;44.534;18.644;2024-03-22T11:02:56;10.07;;;6.47;;
52768;SDS011;40471;44.534;18.644;2024-03-22T11:07:48;14.05;;;6.35;;
52768;SDS011;40471;44.534;18.644;2024-03-22T11:10:25;24.43;;;11.07;;
52768;SDS011;40471;44.534;18.644;2024-03-22T11:12:55;12.10;;;7.45;;
52768;SDS011;40471;44.534;18.644;2024-03-22T11:15:25;15.02;;;9.23;;
52768;SDS011;40471;44.534;18.644;2024-03-22T11:20:16;23.90;;;9.77;;
52768;SDS011;40471;44.534;18.644;2024-03-22T11:22:43;29.50;;;10.15;;
52768;SDS011;40471;44.534;18.644;2024-03-22T11:27:34;10.52;;;6.72;;
52768;SDS011;40471;44.534;18.644;2024-03-22T11:30:00;15.50;;;6.20;;
52768;SDS011;40471;44.534;18.644;2024-03-22T11:34:53;16.60;;;8.68;;
52768;SDS011;40471;44.534;18.644;2024-03-22T11:37:19;17.83;;;8.27;;
52768;SDS011;40471;44.534;18.644;2024-03-22T11:42:11;13.40;;;6.95;;
52768;SDS011;40471;44.534;18.644;2024-03-22T11:44:40;14.18;;;7.88;;
52768;SDS011;40471;44.534;18.644;2024-03-22T11:47:07;18.73;;;8.52;;
52768;SDS011;40471;44.534;18.644;2024-03-22T11:49:33;17.98;;;8.63;;
52768;SDS011;40471;44.534;18.644;2024-03-22T11:52:00;12.90;;;7.97;;
52768;SDS011;40471;44.534;18.644;2024-03-22T11:56:51;20.58;;;9.63;;
52768;SDS011;40471;44.534;18.644;2024-03-22T11:59:20;14.10;;;8.75;;
52768;SDS011;40471;44.534;18.644;2024-03-22T12:01:47;11.43;;;7.68;;
52768;SDS011;40471;44.534;18.644;2024-03-22T12:04:12;13.88;;;6.13;;
52768;SDS011;40471;44.534;18.644;2024-03-22T12:06:46;7.72;;;5.05;;
52768;SDS011;40471;44.534;18.644;2024-03-22T12:09:12;16.88;;;8.75;;
52768;SDS011;40471;44.534;18.644;2024-03-22T12:11:41;9.15;;;5.07;;
52768;SDS011;40471;44.534;18.644;2024-03-22T12:14:22;15.88;;;6.10;;
52768;SDS011;40471;44.534;18.644;2024-03-22T12:16:48;14.88;;;4.20;;
52768;SDS011;40471;44.534;18.644;2024-03-22T12:19:14;9.80;;;4.80;;
52768;SDS011;40471;44.534;18.644;2024-03-22T12:21:39;13.88;;;5.28;;
52768;SDS011;40471;44.534;18.644;2024-03-22T12:24:06;17.30;;;5.28;;
52768;SDS011;40471;44.534;18.644;2024-03-22T12:26:32;4.60;;;2.55;;
52768;SDS011;40471;44.534;18.644;2024-03-22T12:28:58;17.02;;;4.65;;
52768;SDS011;40471;44.534;18.644;2024-03-22T12:31:24;19.50;;;3.92;;
52768;SDS011;40471;44.534;18.644;2024-03-22T12:33:50;13.65;;;5.18;;
52768;SDS011;40471;44.534;18.644;2024-03-22T12:36:16;17.15;;;6.07;;
52768;SDS011;40471;44.534;18.644;2024-03-22T12:38:45;12.13;;;4.35;;
52768;SDS011;40471;44.534;18.644;2024-03-22T12:41:11;8.80;;;5.47;;
52768;SDS011;40471;44.534;18.644;2024-03-22T12:43:40;34.55;;;17.05;;
52768;SDS011;40471;44.534;18.644;2024-03-22T12:46:07;21.08;;;7.07;;
52768;SDS011;40471;44.534;18.644;2024-03-22T12:48:33;17.80;;;6.95;;
52768;SDS011;40471;44.534;18.644;2024-03-22T12:50:59;18.27;;;8.57;;
52768;SDS011;40471;44.534;18.644;2024-03-22T12:53:25;25.90;;;11.93;;
52768;SDS011;40471;44.534;18.644;2024-03-22T12:55:51;22.30;;;5.65;;
52768;SDS011;40471;44.534;18.644;2024-03-22T12:58:17;19.77;;;7.30;;
52768;SDS011;40471;44.534;18.644;2024-03-22T13:00:53;18.58;;;8.57;;
52768;SDS011;40471;44.534;18.644;2024-03-22T13:03:19;13.20;;;6.35;;
52768;SDS011;40471;44.534;18.644;2024-03-22T13:05:45;25.13;;;5.63;;
52768;SDS011;40471;44.534;18.644;2024-03-22T13:08:23;29.38;;;6.32;;
52768;SDS011;40471;44.534;18.644;2024-03-22T13:10:52;12.32;;;3.90;;
52768;SDS011;40471;44.534;18.644;2024-03-22T13:13:18;8.80;;;3.63;;
52768;SDS011;40471;44.534;18.644;2024-03-22T13:15:47;12.15;;;6.85;;
52768;SDS011;40471;44.534;18.644;2024-03-22T13:18:13;16.20;;;5.30;;
52768;SDS011;40471;44.534;18.644;2024-03-22T13:20:46;34.10;;;7.75;;
52768;SDS011;40471;44.534;18.644;2024-03-22T13:23:12;14.95;;;8.90;;
52768;SDS011;40471;44.534;18.644;2024-03-22T13:25:38;20.02;;;7.85;;
52768;SDS011;40471;44.534;18.644;2024-03-22T13:28:07;10.77;;;6.82;;
52768;SDS011;40471;44.534;18.644;2024-03-22T13:30:36;8.75;;;6.03;;
52768;SDS011;40471;44.534;18.644;2024-03-22T13:33:05;13.65;;;6.15;;
52768;SDS011;40471;44.534;18.644;2024-03-22T13:35:35;10.68;;;5.55;;
52768;SDS011;40471;44.534;18.644;2024-03-22T13:38:01;13.65;;;6.13;;
52768;SDS011;40471;44.534;18.644;2024-03-22T13:40:27;17.58;;;9.32;;
52768;SDS011;40471;44.534;18.644;2024-03-22T13:42:53;16.33;;;9.00;;
52768;SDS011;40471;44.534;18.644;2024-03-22T13:45:19;70.32;;;26.10;;
52768;SDS011;40471;44.534;18.644;2024-03-22T13:47:45;20.88;;;8.45;;
52768;SDS011;40471;44.534;18.644;2024-03-22T13:50:11;22.10;;;9.60;;
52768;SDS011;40471;44.534;18.644;2024-03-22T13:52:37;18.73;;;7.35;;
52768;SDS011;40471;44.534;18.644;2024-03-22T13:55:03;22.20;;;7.82;;
52768;SDS011;40471;44.534;18.644;2024-03-22T13:57:29;13.63;;;6.05;;
52768;SDS011;40471;44.534;18.644;2024-03-22T13:59:56;16.90;;;8.68;;
52768;SDS011;40471;44.534;18.644;2024-03-22T14:02:23;13.95;;;8.63;;
52768;SDS011;40471;44.534;18.644;2024-03-22T14:04:48;8.18;;;5.43;;
52768;SDS011;40471;44.534;18.644;2024-03-22T14:07:14;22.05;;;7.50;;
52768;SDS011;40471;44.534;18.644;2024-03-22T14:09:40;11.32;;;7.78;;
52768;SDS011;40471;44.534;18.644;2024-03-22T14:12:08;26.65;;;10.27;;
52768;SDS011;40471;44.534;18.644;2024-03-22T14:14:34;19.63;;;9.05;;
52768;SDS011;40471;44.534;18.644;2024-03-22T14:17:00;7.50;;;5.22;;
52768;SDS011;40471;44.534;18.644;2024-03-22T14:19:26;17.77;;;10.23;;
52768;SDS011;40471;44.534;18.644;2024-03-22T14:21:51;21.77;;;12.00;;
52768;SDS011;40471;44.534;18.644;2024-03-22T14:24:17;22.42;;;8.05;;
52768;SDS011;40471;44.534;18.644;2024-03-22T14:26:43;14.55;;;8.57;;
52768;SDS011;40471;44.534;18.644;2024-03-22T14:29:09;17.58;;;10.23;;
52768;SDS011;40471;44.534;18.644;2024-03-22T14:34:01;42.00;;;10.63;;
52768;SDS011;40471;44.534;18.644;2024-03-22T14:36:27;90.47;;;37.08;;
52768;SDS011;40471;44.534;18.644;2024-03-22T14:38:53;16.05;;;9.70;;
52768;SDS011;40471;44.534;18.644;2024-03-22T14:41:19;25.13;;;10.27;;
52768;SDS011;40471;44.534;18.644;2024-03-22T14:43:45;65.78;;;16.58;;
52768;SDS011;40471;44.534;18.644;2024-03-22T14:46:10;26.08;;;12.52;;
52768;SDS011;40471;44.534;18.644;2024-03-22T14:48:36;26.77;;;11.15;;
52768;SDS011;40471;44.534;18.644;2024-03-22T14:51:03;18.83;;;12.82;;
52768;SDS011;40471;44.534;18.644;2024-03-22T14:53:28;25.73;;;14.27;;
52768;SDS011;40471;44.534;18.644;2024-03-22T14:55:59;22.88;;;13.27;;
52768;SDS011;40471;44.534;18.644;2024-03-22T14:58:33;25.63;;;10.10;;
52768;SDS011;40471;44.534;18.644;2024-03-22T15:01:00;23.00;;;8.75;;
52768;SDS011;40471;44.534;18.644;2024-03-22T15:03:27;23.42;;;9.13;;
52768;SDS011;40471;44.534;18.644;2024-03-22T15:08:20;15.10;;;6.18;;
52768;SDS011;40471;44.534;18.644;2024-03-22T15:10:46;11.57;;;6.13;;